Time;durP1;ratioP1;P1;durP2;ratioP2;P2;SDS_P1;SDS_P2;PMS_P1;PMS_P2;Temp;Humidity;BMP_temperature;BMP_pressure;BME280_temperature;BME280_humidity;BME280_pressure;Samples;Min_cycle;Max_cycle;Signal;HPM_P1;HPM_P2
2021/05/30 00:03:05;;;;;;;14.03;10.70;;;;;;;12.54;61.94;102770.75;6181925;28;20502;-50
2021/05/30 00:06:28;;;;;;;10.07;9.10;;;;;;;12.47;62.22;102769.81;6188131;28;20229;-50
2021/05/30 00:09:48;;;;;;;12.67;11.00;;;;;;;12.29;62.49;102770.44;6179493;28;20316;-50
2021/05/30 00:13:11;;;;;;;12.03;9.60;;;;;;;12.50;62.14;102764.59;6178190;28;20237;-52
2021/05/30 00:16:32;;;;;;;17.83;11.70;;;;;;;12.63;61.50;102767.41;6188439;28;20228;-51
2021/05/30 00:19:52;;;;;;;14.73;11.07;;;;;;;12.61;61.81;102770.00;6181095;28;20242;-53
2021/05/30 00:23:13;;;;;;;12.07;9.27;;;;;;;12.53;62.05;102766.41;6177493;28;20226;-51
2021/05/30 00:26:34;;;;;;;14.73;12.07;;;;;;;12.50;62.10;102771.59;6172504;28;20237;-47
2021/05/30 00:29:56;;;;;;;15.83;11.20;;;;;;;12.47;62.21;102782.00;6177667;28;20242;-50
2021/05/30 00:33:16;;;;;;;13.13;9.47;;;;;;;12.39;62.58;102769.69;6188442;28;20226;-50
2021/05/30 00:36:36;;;;;;;12.27;9.30;;;;;;;12.34;62.51;102775.72;6170239;28;20702;-51
2021/05/30 00:39:57;;;;;;;18.17;12.20;;;;;;;12.45;62.42;102773.28;6178323;28;20237;-49
2021/05/30 00:43:17;;;;;;;14.33;10.17;;;;;;;12.25;62.84;102776.44;6171434;28;20238;-49
2021/05/30 00:46:38;;;;;;;11.97;10.00;;;;;;;12.41;62.22;102767.13;6181051;28;20226;-52
2021/05/30 00:49:58;;;;;;;13.03;9.60;;;;;;;12.35;62.73;102767.03;6178599;28;20229;-52
2021/05/30 00:53:19;;;;;;;14.53;9.43;;;;;;;12.34;62.59;102760.91;6181721;28;20237;-51
2021/05/30 00:56:41;;;;;;;21.23;11.13;;;;;;;12.25;62.90;102771.22;6195429;28;20312;-46
2021/05/30 01:00:01;;;;;;;12.93;9.07;;;;;;;12.28;62.77;102771.28;6179264;28;20237;-50
2021/05/30 01:03:22;;;;;;;13.00;9.93;;;;;;;12.11;63.13;102772.75;6177714;28;20237;-51
2021/05/30 01:06:43;;;;;;;13.83;10.03;;;;;;;12.37;62.65;102760.97;6181162;28;20230;-49
2021/05/30 01:10:32;;;;;;;10.30;9.27;;;;;;;12.25;62.84;102760.75;6175818;28;20506;-49
2021/05/30 01:13:54;;;;;;;14.37;10.67;;;;;;;11.94;64.11;102757.69;6178146;28;20237;-51
2021/05/30 01:17:16;;;;;;;11.87;9.77;;;;;;;12.21;63.25;102764.19;6182405;28;20230;-53
2021/05/30 01:20:38;;;;;;;15.67;11.13;;;;;;;12.20;62.99;102765.06;6169273;28;20234;-48
2021/05/30 01:23:59;;;;;;;17.70;11.33;;;;;;;12.19;63.15;102756.34;6187722;28;20237;-52
2021/05/30 01:27:19;;;;;;;12.33;9.97;;;;;;;12.11;63.43;102762.31;6164296;28;20226;-51
2021/05/30 01:30:40;;;;;;;19.90;12.23;;;;;;;12.11;63.11;102762.31;6176818;28;20233;-50
2021/05/30 01:34:00;;;;;;;16.07;10.83;;;;;;;12.07;63.39;102763.97;6181278;28;20226;-53
2021/05/30 01:37:20;;;;;;;13.87;11.87;;;;;;;12.01;63.58;102767.38;6190851;28;20238;-48
2021/05/30 01:40:42;;;;;;;16.70;12.20;;;;;;;11.99;63.61;102769.09;6186821;28;20257;-52
2021/05/30 01:44:04;;;;;;;15.47;11.40;;;;;;;11.97;63.72;102777.75;6166194;28;20643;-49
2021/05/30 01:47:24;;;;;;;15.47;12.73;;;;;;;11.93;63.94;102779.44;6184934;28;20218;-49
2021/05/30 01:50:47;;;;;;;13.90;10.77;;;;;;;11.90;64.22;102768.91;6169093;28;20544;-50
2021/05/30 01:54:10;;;;;;;17.37;11.87;;;;;;;11.82;64.52;102767.88;6189706;28;20700;-48
2021/05/30 01:57:36;;;;;;;17.63;12.40;;;;;;;11.99;63.74;102769.09;6183526;28;20249;-51
2021/05/30 02:00:59;;;;;;;13.07;11.20;;;;;;;11.86;64.32;102767.09;6180546;28;20257;-51
2021/05/30 02:04:22;;;;;;;15.07;11.53;;;;;;;11.63;65.16;102772.81;6181695;28;20245;-54
2021/05/30 02:07:43;;;;;;;14.03;12.17;;;;;;;11.95;64.09;102767.28;6191654;28;20234;-51
2021/05/30 02:11:08;;;;;;;19.27;13.97;;;;;;;12.02;63.76;102769.13;6171897;28;20253;-53
2021/05/30 02:14:29;;;;;;;14.37;12.87;;;;;;;11.84;64.62;102766.19;6177733;28;20604;-48
2021/05/30 02:17:50;;;;;;;16.10;11.43;;;;;;;11.81;64.69;102768.75;6164365;28;20241;-50
2021/05/30 02:21:10;;;;;;;14.63;12.90;;;;;;;11.77;64.95;102775.66;6171082;28;20234;-47
2021/05/30 02:24:31;;;;;;;20.10;13.93;;;;;;;11.95;63.63;102767.28;6187853;28;20234;-50
2021/05/30 02:27:52;;;;;;;18.43;13.13;;;;;;;11.66;65.51;102771.09;6175746;28;20230;-50
2021/05/30 02:31:13;;;;;;;17.83;14.63;;;;;;;11.69;65.39;102771.13;6180579;28;20252;-48
2021/05/30 02:34:34;;;;;;;17.97;14.10;;;;;;;11.72;64.77;102765.97;6182673;28;20607;-49
2021/05/30 02:37:54;;;;;;;19.40;13.30;;;;;;;11.69;64.80;102771.13;6176742;28;20238;-51
2021/05/30 02:41:15;;;;;;;14.47;13.03;;;;;;;11.80;64.49;102775.69;6170241;28;20777;-50
2021/05/30 02:44:35;;;;;;;17.73;13.60;;;;;;;11.71;65.00;102772.94;6181874;28;20229;-52
2021/05/30 02:47:57;;;;;;;19.33;14.30;;;;;;;11.72;65.29;102771.22;6181616;28;20600;-52
2021/05/30 02:51:18;;;;;;;15.90;13.93;;;;;;;11.43;66.27;102774.16;6176965;28;20238;-52
2021/05/30 02:54:38;;;;;;;16.47;14.70;;;;;;;11.43;66.66;102776.78;6171038;28;20230;-51
2021/05/30 02:57:58;;;;;;;17.93;13.57;;;;;;;11.56;66.26;102776.16;6174591;28;20228;-49
2021/05/30 03:01:19;;;;;;;22.20;15.73;;;;;;;11.79;65.41;102778.28;6173472;28;20245;-46
2021/05/30 03:04:42;;;;;;;16.53;14.17;;;;;;;11.69;65.52;102773.75;6171131;28;20234;-51
2021/05/30 03:08:02;;;;;;;16.53;14.80;;;;;;;11.69;65.42;102768.53;6177334;28;20229;-51
2021/05/30 03:11:22;;;;;;;19.43;14.57;;;;;;;11.73;65.84;102771.25;6178896;28;20234;-47
2021/05/30 03:14:43;;;;;;;19.40;15.83;;;;;;;11.72;65.16;102763.38;6174565;28;20452;-46
2021/05/30 03:18:04;;;;;;;22.00;17.30;;;;;;;11.56;66.18;102770.06;6176781;28;20238;-49
2021/05/30 03:21:25;;;;;;;17.43;14.67;;;;;;;11.64;66.44;102760.63;6184342;28;20233;-52
2021/05/30 03:24:46;;;;;;;20.13;14.83;;;;;;;11.56;66.27;102760.50;6183447;28;20578;-51
2021/05/30 03:28:06;;;;;;;19.07;14.97;;;;;;;11.57;65.76;102758.75;6175382;28;20234;-50
2021/05/30 03:31:27;;;;;;;23.83;14.97;;;;;;;11.57;66.11;102764.88;6185626;28;20226;-53
2021/05/30 03:34:47;;;;;;;19.83;15.47;;;;;;;11.60;66.04;102764.03;6185462;28;20229;-54
2021/05/30 03:38:10;;;;;;;18.03;15.73;;;;;;;11.68;65.82;102762.44;6184910;28;20233;-52
2021/05/30 03:41:35;;;;;;;18.07;15.23;;;;;;;11.89;65.10;102767.19;6181484;28;20241;-50
2021/05/30 03:44:57;;;;;;;18.93;14.00;;;;;;;11.94;65.46;102770.75;6178611;28;20312;-50
2021/05/30 03:48:17;;;;;;;25.03;16.83;;;;;;;11.83;65.61;102769.66;6172549;28;20530;-50
2021/05/30 03:51:38;;;;;;;22.10;15.47;;;;;;;11.76;66.00;102766.06;6182485;28;20667;-51
2021/05/30 03:54:59;;;;;;;20.37;15.40;;;;;;;12.05;65.00;102773.53;6177426;28;20561;-48
2021/05/30 03:58:21;;;;;;;19.87;14.17;;;;;;;11.75;66.67;102771.28;6180815;28;20537;-50
2021/05/30 04:01:41;;;;;;;17.37;14.10;;;;;;;11.97;65.75;102770.78;6182826;28;20233;-52
2021/05/30 04:05:02;;;;;;;17.90;14.00;;;;;;;11.98;65.60;102772.56;6176410;28;20530;-52
2021/05/30 04:08:23;;;;;;;21.23;15.77;;;;;;;12.07;65.19;102770.94;6186214;28;20233;-49
2021/05/30 04:11:44;;;;;;;16.67;14.43;;;;;;;12.01;65.92;102764.75;6181535;28;20325;-49
2021/05/30 04:15:06;;;;;;;17.63;15.03;;;;;;;11.82;66.81;102770.50;6184559;28;20233;-53
2021/05/30 04:18:27;;;;;;;19.53;15.60;;;;;;;11.86;66.72;102772.31;6179304;28;20230;-50
2021/05/30 04:21:47;;;;;;;20.30;13.63;;;;;;;12.00;66.89;102764.75;6181173;28;20269;-53
2021/05/30 04:25:09;;;;;;;19.90;14.80;;;;;;;12.22;66.08;102765.97;6183892;28;20316;-51
2021/05/30 04:28:30;;;;;;;21.40;18.17;;;;;;;12.20;65.97;102771.16;6179177;28;20234;-52
2021/05/30 04:31:51;;;;;;;23.03;17.10;;;;;;;12.31;65.58;102770.44;6183286;28;20317;-52
2021/05/30 04:35:12;;;;;;;22.63;18.47;;;;;;;12.33;65.82;102780.06;6175771;28;20624;-50
2021/05/30 04:38:33;;;;;;;25.73;19.33;;;;;;;12.16;66.43;102776.31;6175149;28;20230;-50
2021/05/30 04:41:53;;;;;;;22.37;19.60;;;;;;;12.26;66.14;102777.34;6184038;28;20246;-48
2021/05/30 04:45:16;;;;;;;22.97;20.47;;;;;;;12.20;66.02;102779.00;6179882;28;20234;-48
2021/05/30 04:48:36;;;;;;;22.60;19.30;;;;;;;12.43;65.62;102770.63;6180150;28;20257;-50
2021/05/30 04:51:57;;;;;;;20.80;16.87;;;;;;;12.41;65.57;102767.13;6183518;28;20237;-49
2021/05/30 04:55:17;;;;;;;21.53;17.20;;;;;;;12.29;65.55;102773.03;6180336;28;20623;-49
2021/05/30 04:58:38;;;;;;;21.30;18.33;;;;;;;12.24;66.38;102774.69;6179480;28;20234;-50
2021/05/30 05:02:00;;;;;;;22.97;17.20;;;;;;;12.31;65.80;102773.94;6183715;28;20234;-52
2021/05/30 05:05:20;;;;;;;21.50;17.33;;;;;;;12.31;65.92;102776.56;6180094;28;20232;-46
2021/05/30 05:08:40;;;;;;;18.33;15.00;;;;;;;12.33;66.13;102780.06;6173354;28;20253;-48
2021/05/30 05:12:01;;;;;;;28.17;16.67;;;;;;;12.48;65.44;102778.53;6181615;28;20233;-53
2021/05/30 05:15:21;;;;;;;24.40;18.57;;;;;;;12.37;65.74;102779.25;6193043;28;20234;-49
2021/05/30 05:18:43;;;;;;;25.73;22.37;;;;;;;12.41;65.51;102773.22;6191996;28;20226;-48
2021/05/30 05:22:04;;;;;;;28.13;20.50;;;;;;;12.63;64.67;102778.75;6186427;28;20280;-50
2021/05/30 05:25:24;;;;;;;30.53;21.43;;;;;;;12.25;65.61;102775.56;6190525;28;20230;-49
2021/05/30 05:28:44;;;;;;;26.87;21.60;;;;;;;11.95;67.06;102780.34;6188207;28;20241;-51
2021/05/30 05:32:05;;;;;;;29.40;20.73;;;;;;;12.23;66.40;102775.53;6185572;28;20233;-47
2021/05/30 05:35:27;;;;;;;23.83;19.97;;;;;;;11.90;67.34;102775.88;6185972;28;20237;-50
2021/05/30 05:38:47;;;;;;;24.73;18.90;;;;;;;12.07;66.95;102777.03;6195285;28;20234;-51
2021/05/30 05:42:08;;;;;;;22.30;18.70;;;;;;;11.90;67.55;102778.50;6186094;28;20237;-52
2021/05/30 05:45:29;;;;;;;24.83;15.33;;;;;;;12.37;66.26;102779.25;6196957;28;20742;-50
2021/05/30 05:48:50;;;;;;;23.43;17.67;;;;;;;12.32;65.45;102773.06;6182366;28;20316;-50
2021/05/30 05:52:11;;;;;;;22.37;15.87;;;;;;;12.10;66.61;102778.84;6187612;28;20316;-54
2021/05/30 05:55:32;;;;;;;19.73;16.27;;;;;;;12.43;65.74;102770.63;6181523;28;20615;-52
2021/05/30 05:58:53;;;;;;;21.27;15.63;;;;;;;12.52;65.20;102775.09;6183030;28;20250;-51
2021/05/30 06:02:13;;;;;;;21.43;16.43;;;;;;;12.59;64.84;102774.34;6185545;28;20596;-49
2021/05/30 06:05:34;;;;;;;19.40;15.27;;;;;;;12.37;64.97;102781.88;6171365;28;20226;-51
2021/05/30 06:08:55;;;;;;;19.10;16.40;;;;;;;12.66;64.50;102789.25;6169893;28;20230;-53
2021/05/30 06:12:15;;;;;;;22.80;15.60;;;;;;;11.95;66.12;102780.34;6181227;28;20643;-50
2021/05/30 06:15:36;;;;;;;22.70;16.20;;;;;;;11.76;67.15;102783.44;6171719;28;20230;-53
2021/05/30 06:18:56;;;;;;;17.10;14.93;;;;;;;12.27;65.70;102782.59;6209722;28;20230;-52
2021/05/30 06:22:17;;;;;;;17.40;15.47;;;;;;;12.57;64.20;102778.66;6188281;28;20779;-54
2021/05/30 06:25:40;;;;;;;19.37;16.70;;;;;;;12.48;64.34;102782.00;6154131;28;20230;-52
2021/05/30 06:29:01;;;;;;;17.93;14.67;;;;;;;11.62;66.41;102781.47;6167721;28;20312;-49
2021/05/30 06:32:22;;;;;;;18.13;16.03;;;;;;;12.14;65.29;102784.13;6181305;28;20497;-54
2021/05/30 06:35:43;;;;;;;17.53;15.57;;;;;;;11.92;65.54;102788.13;6166090;28;20473;-53
2021/05/30 06:39:03;;;;;;;18.57;14.70;;;;;;;12.42;64.75;102774.09;6178190;28;20332;-47
2021/05/30 06:42:24;;;;;;;17.50;15.47;;;;;;;12.86;63.40;102776.44;6182212;28;20238;-47
2021/05/30 06:45:45;;;;;;;18.07;14.93;;;;;;;13.40;61.46;102784.94;6180933;28;20234;-49
2021/05/30 06:49:06;;;;;;;15.23;13.63;;;;;;;13.79;60.45;102787.06;6181642;28;20229;-48
2021/05/30 06:52:26;;;;;;;19.87;16.17;;;;;;;13.67;60.13;102779.09;6183822;28;21153;-48
2021/05/30 06:55:46;;;;;;;19.00;13.90;;;;;;;13.89;59.86;102782.78;6182572;28;20233;-49
2021/05/30 06:59:07;;;;;;;16.33;14.73;;;;;;;13.94;58.85;102788.94;6186026;28;20236;-51
2021/05/30 07:02:28;;;;;;;21.70;15.47;;;;;;;13.98;59.39;102782.00;6182659;28;20241;-52
2021/05/30 07:05:48;;;;;;;19.90;15.50;;;;;;;13.87;59.24;102779.25;6163672;28;20230;-54
2021/05/30 07:09:09;;;;;;;20.77;15.67;;;;;;;13.79;59.30;102778.31;6170846;28;20320;-52
2021/05/30 07:12:29;;;;;;;17.73;15.93;;;;;;;14.15;59.03;102776.84;6162295;28;20234;-54
2021/05/30 07:15:52;;;;;;;22.80;16.47;;;;;;;14.13;58.93;102782.09;6178172;28;20279;-54
2021/05/30 07:19:12;;;;;;;26.63;20.67;;;;;;;14.79;56.82;102772.91;6165731;28;20231;-52
2021/05/30 07:22:33;;;;;;;30.80;21.30;;;;;;;14.33;57.13;102779.63;6175399;28;20269;-49
2021/05/30 07:25:54;;;;;;;33.57;23.83;;;;;;;14.55;57.52;102766.63;6189649;28;20238;-52
2021/05/30 07:29:16;;;;;;;25.33;20.27;;;;;;;14.64;56.74;102766.72;6159747;28;20230;-50
2021/05/30 07:32:37;;;;;;;19.13;15.70;;;;;;;14.47;57.33;102778.81;6184315;28;20233;-52
2021/05/30 07:35:58;;;;;;;18.67;14.93;;;;;;;13.71;59.12;102765.16;6180241;28;20321;-51
2021/05/30 07:39:19;;;;;;;18.03;12.53;;;;;;;14.59;59.20;102768.44;6179289;28;20886;-54
2021/05/30 07:42:39;;;;;;;9.73;8.77;;;;;;;14.43;61.88;102777.06;6211072;28;20337;-50
2021/05/30 07:46:00;;;;;;;14.20;11.27;;;;;;;14.97;59.13;102770.38;6183263;28;20242;-52
2021/05/30 07:49:21;;;;;;;11.47;10.33;;;;;;;15.51;56.44;102779.25;6184670;28;20226;-50
2021/05/30 07:52:42;;;;;;;11.60;8.57;;;;;;;16.07;56.50;102779.28;6158276;28;20231;-49
2021/05/30 07:56:03;;;;;;;12.40;9.20;;;;;;;16.87;53.45;102789.66;6172232;28;20607;-54
2021/05/30 07:59:24;;;;;;;13.70;9.70;;;;;;;16.34;52.32;102788.88;6188132;28;20344;-51
2021/05/30 08:02:45;;;;;;;12.53;9.60;;;;;;;16.71;53.98;102776.53;6185053;28;20261;-51
2021/05/30 08:06:06;;;;;;;18.77;15.43;;;;;;;15.74;54.57;102787.19;6186484;28;20230;-55
2021/05/30 08:09:27;;;;;;;217.67;193.13;;;;;;;16.31;55.03;102788.91;6184247;28;20234;-51
2021/05/30 08:12:48;;;;;;;166.20;143.03;;;;;;;16.03;55.10;102793.31;6185816;28;20260;-54
2021/05/30 08:16:08;;;;;;;1626.17;999.90;;;;;;;16.68;56.36;102787.06;6185534;28;20924;-55
2021/05/30 08:19:29;;;;;;;408.97;365.20;;;;;;;15.83;54.30;102780.19;6187696;28;20249;-51
2021/05/30 08:22:51;;;;;;;42.23;38.00;;;;;;;15.51;56.00;102787.13;6189698;28;20249;-48
2021/05/30 08:26:11;;;;;;;156.57;143.27;;;;;;;15.78;52.51;102784.53;6183970;28;20233;-52
2021/05/30 08:29:32;;;;;;;19.70;16.83;;;;;;;14.98;55.44;102785.22;6152694;28;20230;-53
2021/05/30 08:32:52;;;;;;;16.27;12.63;;;;;;;15.33;53.74;102785.34;6164887;28;20238;-52
2021/05/30 08:36:13;;;;;;;11.73;10.60;;;;;;;15.82;53.32;102779.31;6182632;28;20607;-52
2021/05/30 08:39:34;;;;;;;13.87;12.40;;;;;;;15.62;53.67;102779.25;6184006;28;20726;-53
2021/05/30 08:42:54;;;;;;;15.27;11.47;;;;;;;15.26;54.11;102775.69;6186214;28;20876;-52
2021/05/30 08:46:15;;;;;;;12.97;11.53;;;;;;;15.76;52.46;102781.94;6161557;28;20231;-54
2021/05/30 08:49:35;;;;;;;11.17;9.17;;;;;;;16.02;52.41;102778.44;6181245;28;20237;-50
2021/05/30 08:52:56;;;;;;;11.70;9.43;;;;;;;16.06;51.74;102785.44;6184929;28;20249;-49
2021/05/30 08:56:18;;;;;;;12.83;9.57;;;;;;;14.70;55.04;102787.72;6161858;28;20230;-53
2021/05/30 08:59:41;;;;;;;14.07;10.73;;;;;;;15.62;53.26;102783.63;6138569;28;20234;-51
2021/05/30 09:03:11;;;;;;;10.73;9.63;;;;;;;15.56;52.87;102788.00;6165375;28;20329;-48
2021/05/30 09:06:32;;;;;;;11.17;8.50;;;;;;;16.05;52.26;102786.28;6163982;28;20241;-53
2021/05/30 09:09:52;;;;;;;14.53;9.87;;;;;;;16.34;50.84;102788.88;6190287;28;20222;-52
2021/05/30 09:13:15;;;;;;;12.20;10.17;;;;;;;15.85;51.70;102788.94;6165193;28;20257;-53
2021/05/30 09:16:57;;;;;;;9.80;8.63;;;;;;;15.59;53.47;102781.88;6182445;28;20230;-48
2021/05/30 09:20:18;;;;;;;14.17;11.33;;;;;;;16.34;51.14;102779.28;6191870;28;20611;-50
2021/05/30 09:23:41;;;;;;;11.67;9.97;;;;;;;15.35;54.76;102777.44;6191058;28;20234;-49
2021/05/30 09:27:08;;;;;;;11.40;9.53;;;;;;;16.42;52.53;102770.47;6184693;28;20238;-51
2021/05/30 09:30:40;;;;;;;13.70;9.73;;;;;;;16.78;50.17;102779.13;6183132;28;20225;-54
2021/05/30 09:34:00;;;;;;;12.13;7.33;;;;;;;16.59;51.44;102773.06;6187021;28;20599;-51
2021/05/30 09:37:20;;;;;;;13.10;8.63;;;;;;;17.06;50.31;102772.00;6188921;28;20237;-53
2021/05/30 09:40:44;;;;;;;12.30;8.63;;;;;;;17.41;49.89;102766.56;6177251;28;20516;-54
2021/05/30 09:44:05;;;;;;;8.67;7.87;;;;;;;17.21;48.72;102764.03;6178894;28;20233;-51
2021/05/30 09:47:33;;;;;;;9.60;8.03;;;;;;;17.90;48.65;102765.34;6180130;28;20315;-54
2021/05/30 09:51:04;;;;;;;10.13;9.03;;;;;;;17.29;49.26;102761.34;6173961;28;20236;-51
2021/05/30 09:54:24;;;;;;;9.53;8.63;;;;;;;17.36;49.12;102768.34;6173176;28;20261;-52
2021/05/30 09:58:03;;;;;;;11.40;10.20;;;;;;;16.95;49.98;102758.91;6180809;28;20580;-50
2021/05/30 10:01:25;;;;;;;12.03;10.40;;;;;;;17.13;49.57;102765.84;6179428;28;20610;-50
2021/05/30 10:04:46;;;;;;;10.13;9.13;;;;;;;17.55;50.07;102768.22;6182178;28;20253;-54
2021/05/30 10:08:07;;;;;;;10.43;9.27;;;;;;;17.98;48.62;102770.53;6180456;28;20229;-48
2021/05/30 10:11:27;;;;;;;10.30;8.47;;;;;;;18.16;47.15;102772.97;6182912;28;20570;-50
2021/05/30 10:14:47;;;;;;;12.43;9.27;;;;;;;18.29;46.91;102764.06;6181423;28;20463;-50
2021/05/30 10:18:13;;;;;;;8.83;7.93;;;;;;;18.08;48.19;102759.88;6180127;28;20234;-52
2021/05/30 10:21:39;;;;;;;10.83;9.03;;;;;;;17.66;48.56;102751.44;6183927;28;20360;-55
2021/05/30 10:25:00;;;;;;;10.57;9.03;;;;;;;18.07;47.91;102763.41;6173785;28;20496;-49
2021/05/30 10:28:21;;;;;;;11.93;9.00;;;;;;;18.87;48.07;102754.63;6181970;28;20237;-52
2021/05/30 10:31:43;;;;;;;10.30;8.97;;;;;;;18.88;45.88;102750.22;6175897;28;20229;-53
2021/05/30 10:35:12;;;;;;;10.70;8.40;;;;;;;19.39;45.55;102752.16;6176139;28;20237;-53
2021/05/30 10:38:38;;;;;;;9.43;8.40;;;;;;;19.21;46.27;102746.25;6169884;28;20238;-51
2021/05/30 10:42:10;;;;;;;14.83;9.17;;;;;;;18.89;47.17;102750.19;6187350;28;20233;-51
2021/05/30 10:45:31;;;;;;;13.17;8.50;;;;;;;19.27;46.24;102747.94;6173988;28;20233;-54
2021/05/30 10:49:06;;;;;;;10.17;8.93;;;;;;;19.60;45.56;102745.63;6172671;28;20230;-49
2021/05/30 10:52:33;;;;;;;10.00;8.30;;;;;;;19.61;45.34;102732.41;6178666;28;20228;-51
2021/05/30 10:56:13;;;;;;;10.33;8.80;;;;;;;19.94;45.73;102737.16;6182695;28;20313;-51
2021/05/30 10:59:37;;;;;;;10.13;8.88;;;;;;;20.02;43.98;102745.84;6148838;28;20258;-51
2021/05/30 11:03:11;;;;;;;8.68;7.80;;;;;;;20.24;44.67;102736.59;6170050;28;20331;-48
2021/05/30 11:06:41;;;;;;;11.48;7.78;;;;;;;20.35;43.51;102727.56;6154528;28;20494;-48
2021/05/30 11:10:12;;;;;;;7.55;6.70;;;;;;;20.32;43.49;102735.59;6148128;28;20234;-49
2021/05/30 11:13:48;;;;;;;8.25;7.40;;;;;;;21.05;44.11;102735.81;6164551;28;20237;-52
2021/05/30 11:17:09;;;;;;;12.85;8.80;;;;;;;21.24;44.39;102725.69;6154330;28;20301;-48
2021/05/30 11:20:41;;;;;;;9.38;7.47;;;;;;;21.71;42.47;102736.03;6155254;28;20681;-51
2021/05/30 11:24:06;;;;;;;10.52;7.22;;;;;;;21.27;41.99;102720.31;6154295;28;20230;-54
2021/05/30 11:27:26;;;;;;;8.32;7.53;;;;;;;21.40;42.51;102724.41;6151855;28;20238;-50
2021/05/30 11:30:50;;;;;;;11.32;9.45;;;;;;;21.66;41.13;102714.97;6173697;28;20233;-54
2021/05/30 11:34:12;;;;;;;9.02;6.28;;;;;;;21.21;38.61;102713.38;6170843;28;20233;-49
2021/05/30 11:37:32;;;;;;;9.50;7.00;;;;;;;21.69;40.43;102716.66;6173297;28;20659;-49
2021/05/30 11:41:07;;;;;;;11.02;6.95;;;;;;;22.22;40.53;102717.00;6175449;28;20237;-50
2021/05/30 11:44:27;;;;;;;7.65;5.80;;;;;;;22.79;40.08;102710.06;6169238;28;20317;-53
2021/05/30 11:48:02;;;;;;;6.93;5.25;;;;;;;22.86;38.45;102708.97;6182408;28;20257;-49
2021/05/30 11:51:23;;;;;;;5.50;5.00;;;;;;;22.52;38.22;102717.94;6179388;28;20653;-51
2021/05/30 11:54:48;;;;;;;8.52;5.63;;;;;;;22.91;37.87;102714.97;6179770;28;20233;-50
2021/05/30 11:58:09;;;;;;;8.30;5.40;;;;;;;21.93;37.67;102715.16;6187540;28;20233;-54
2021/05/30 12:01:42;;;;;;;8.55;5.78;;;;;;;22.49;39.34;102707.41;6185492;28;20230;-50
2021/05/30 12:05:05;;;;;;;9.02;6.65;;;;;;;23.27;39.48;102698.84;6190192;28;20777;-50
2021/05/30 12:08:27;;;;;;;9.60;5.95;;;;;;;22.61;37.69;102698.22;6191077;28;20607;-52
2021/05/30 12:11:47;;;;;;;9.88;5.45;;;;;;;21.94;39.15;102706.28;6180382;28;20367;-51
2021/05/30 12:15:11;;;;;;;5.53;5.03;;;;;;;22.75;39.16;102700.44;6176044;28;20241;-50
2021/05/30 12:18:32;;;;;;;8.40;7.55;;;;;;;23.18;38.53;102692.00;6201828;28;20898;-50
2021/05/30 12:21:54;;;;;;;14.93;10.93;;;;;;;24.08;37.47;102687.19;6176220;28;20241;-52
2021/05/30 12:25:16;;;;;;;8.40;6.05;;;;;;;23.81;37.19;102682.84;6193813;28;20246;-49
2021/05/30 12:28:39;;;;;;;8.40;5.40;;;;;;;24.00;36.69;102683.06;6156684;28;20238;-54
2021/05/30 12:32:00;;;;;;;8.40;5.18;;;;;;;23.96;36.49;102692.94;6152393;28;20596;-48
2021/05/30 12:35:44;;;;;;;8.75;6.10;;;;;;;22.46;38.43;102688.91;6166458;28;20245;-51
2021/05/30 12:39:09;;;;;;;7.93;5.50;;;;;;;23.23;36.71;102681.25;6152659;28;20226;-52
2021/05/30 12:42:30;;;;;;;7.28;5.78;;;;;;;23.20;38.88;102686.66;6156211;28;20494;-50
2021/05/30 12:46:03;;;;;;;7.32;5.65;;;;;;;23.73;37.81;102694.63;6172910;28;20226;-51
2021/05/30 12:49:24;;;;;;;9.80;7.28;;;;;;;23.84;36.99;102685.41;6177193;28;20237;-50
2021/05/30 12:52:47;;;;;;;8.70;6.28;;;;;;;23.90;35.54;102677.22;6156511;28;20254;-50
2021/05/30 12:56:19;;;;;;;9.60;7.25;;;;;;;24.65;34.99;102681.56;6164736;28;20523;-52
2021/05/30 12:59:47;;;;;;;12.15;9.15;;;;;;;24.16;35.80;102671.81;6151431;28;20229;-52
2021/05/30 13:03:10;;;;;;;8.45;6.60;;;;;;;24.25;36.29;102667.94;6160740;28;20262;-53
2021/05/30 13:06:30;;;;;;;8.50;7.55;;;;;;;25.23;34.33;102673.03;6155942;28;20309;-51
2021/05/30 13:09:53;;;;;;;11.15;9.82;;;;;;;27.53;30.94;102672.22;6149335;28;20262;-54
2021/05/30 13:13:28;;;;;;;8.75;7.05;;;;;;;29.40;28.00;102665.47;6140245;28;20231;-47
2021/05/30 13:16:49;;;;;;;8.88;7.40;;;;;;;30.55;27.12;102666.38;6153935;28;20231;-46
2021/05/30 13:20:12;;;;;;;8.50;7.10;;;;;;;30.55;26.78;102652.06;6169462;28;20840;-48
2021/05/30 13:23:33;;;;;;;9.88;7.22;;;;;;;32.31;24.00;102649.84;6138181;28;20269;-49
2021/05/30 13:26:54;;;;;;;11.65;7.20;;;;;;;32.11;23.38;102640.53;6179633;28;20249;-51
2021/05/30 13:30:18;;;;;;;8.55;7.30;;;;;;;31.31;25.16;102635.34;6177485;28;20259;-53
2021/05/30 13:33:40;;;;;;;10.02;6.97;;;;;;;30.80;27.79;102627.13;6181189;28;20234;-50
2021/05/30 13:37:00;;;;;;;7.22;6.15;;;;;;;31.11;27.98;102635.84;6171373;28;20226;-49
2021/05/30 13:40:21;;;;;;;11.07;6.38;;;;;;;31.02;27.25;102634.66;6175970;28;20245;-53
2021/05/30 13:43:41;;;;;;;7.22;6.55;;;;;;;30.46;27.95;102626.66;6180915;28;20246;-52
2021/05/30 13:47:03;;;;;;;30.95;27.83;;;;;;;30.06;28.03;102633.72;6175966;28;20237;-53
2021/05/30 13:50:24;;;;;;;10.63;9.43;;;;;;;30.10;28.46;102627.19;6181965;28;20245;-51
2021/05/30 13:53:46;;;;;;;8.10;7.25;;;;;;;30.09;28.55;102628.13;6172281;28;20309;-54
2021/05/30 13:57:08;;;;;;;7.05;6.32;;;;;;;29.20;30.14;102623.75;6180885;28;20312;-50
2021/05/30 14:00:28;;;;;;;10.82;7.50;;;;;;;28.36;30.66;102619.56;6175811;28;20242;-53
2021/05/30 14:03:49;;;;;;;10.95;6.88;;;;;;;27.58;32.92;102621.13;6178344;28;20834;-50
2021/05/30 14:07:09;;;;;;;13.55;8.05;;;;;;;27.66;32.17;102618.91;6172983;28;20238;-48
2021/05/30 14:10:31;;;;;;;11.38;7.10;;;;;;;27.49;33.37;102609.06;6175133;28;20226;-50
2021/05/30 14:13:51;;;;;;;9.65;6.88;;;;;;;26.22;35.24;102605.56;6175079;28;20225;-52
2021/05/30 14:17:12;;;;;;;8.65;7.13;;;;;;;26.64;33.70;102608.00;6175019;28;20666;-51
2021/05/30 14:20:33;;;;;;;10.38;7.95;;;;;;;26.71;34.26;102595.19;6165841;28;20520;-53
2021/05/30 14:23:54;;;;;;;8.73;7.00;;;;;;;26.59;34.50;102594.00;6177406;28;20237;-53
2021/05/30 14:27:14;;;;;;;7.63;6.75;;;;;;;26.58;34.02;102586.00;6178929;28;20225;-51
2021/05/30 14:30:35;;;;;;;7.70;6.47;;;;;;;26.22;33.94;102584.19;6176689;28;20230;-52
2021/05/30 14:33:56;;;;;;;7.90;6.05;;;;;;;27.00;34.59;102583.03;6181296;28;20634;-52
2021/05/30 14:37:17;;;;;;;7.10;5.10;;;;;;;27.00;35.69;102576.81;6178215;28;20232;-50
2021/05/30 14:40:38;;;;;;;7.78;5.22;;;;;;;26.99;35.53;102581.31;6187602;28;20233;-52
2021/05/30 14:43:58;;;;;;;7.78;5.03;;;;;;;27.41;33.29;102569.38;6179931;28;20234;-50
2021/05/30 14:47:19;;;;;;;6.63;5.85;;;;;;;27.53;32.85;102559.84;6189324;28;20986;-53
2021/05/30 14:50:39;;;;;;;12.52;7.20;;;;;;;27.78;32.35;102563.84;6187507;28;20241;-55
2021/05/30 14:54:02;;;;;;;7.95;7.22;;;;;;;28.16;31.45;102564.44;6182392;28;20237;-53
2021/05/30 14:57:22;;;;;;;5.65;5.05;;;;;;;27.58;32.74;102541.69;6184453;28;20658;-55
2021/05/30 15:00:44;;;;;;;6.32;4.95;;;;;;;28.32;31.84;102543.00;6186488;28;20569;-53
2021/05/30 15:04:05;;;;;;;7.43;4.88;;;;;;;27.69;32.06;102554.50;6181209;28;20634;-50
2021/05/30 15:07:26;;;;;;;6.97;5.30;;;;;;;26.39;32.08;102546.84;6187493;28;20260;-54
2021/05/30 15:10:50;;;;;;;5.93;5.22;;;;;;;26.46;31.12;102540.28;6177547;28;20349;-51
2021/05/30 15:14:11;;;;;;;7.25;6.15;;;;;;;26.13;31.39;102532.97;6175195;28;20234;-56
2021/05/30 15:17:32;;;;;;;5.72;5.13;;;;;;;25.23;32.09;102543.25;6186339;28;20226;-52
2021/05/30 15:20:53;;;;;;;15.57;11.15;;;;;;;26.18;32.35;102537.22;6182666;28;20229;-53
2021/05/30 15:24:13;;;;;;;10.35;9.35;;;;;;;25.99;32.70;102535.41;6182339;28;20840;-54
2021/05/30 15:27:35;;;;;;;6.82;6.22;;;;;;;25.84;32.16;102530.75;6181120;28;20233;-52